Time;durP1;ratioP1;P1;durP2;ratioP2;P2;SDS_P1;SDS_P2;PMS_P1;PMS_P2;Temp;Humidity;BMP_temperature;BMP_pressure;BME280_temperature;BME280_humidity;BME280_pressure;Samples;Min_cycle;Max_cycle;Signal;HPM_P1;HPM_P2
2022/12/21 00:01:30;;;;;;;27.25;5.40;;;6.20;99.90;;;;;;5036361;28;20053;-48
2022/12/21 00:03:57;;;;;;;23.25;3.85;;;6.20;99.90;;;;;;5036773;28;20041;-51
2022/12/21 00:06:24;;;;;;;32.88;4.72;;;6.20;99.90;;;;;;5037568;28;20099;-47
2022/12/21 00:08:50;;;;;;;25.27;4.00;;;6.30;99.90;;;;;;5042288;28;20421;-47
2022/12/21 00:11:17;;;;;;;27.48;5.43;;;6.30;99.90;;;;;;5036826;28;20045;-47
2022/12/21 00:13:44;;;;;;;28.83;4.95;;;6.30;99.90;;;;;;5046948;28;20034;-48
2022/12/21 00:16:11;;;;;;;24.60;4.53;;;6.40;99.90;;;;;;5036722;28;20438;-51
2022/12/21 00:18:37;;;;;;;27.00;5.35;;;6.40;99.90;;;;;;5036211;28;20041;-47
2022/12/21 00:21:04;;;;;;;25.25;4.15;;;6.40;99.90;;;;;;5035989;28;20144;-51
2022/12/21 00:23:31;;;;;;;28.27;4.65;;;6.50;99.90;;;;;;5036511;28;20042;-48
2022/12/21 00:25:58;;;;;;;22.92;4.30;;;6.50;99.90;;;;;;5036410;28;20046;-49
2022/12/21 00:28:24;;;;;;;26.70;4.38;;;6.50;99.90;;;;;;5036265;28;20045;-47
2022/12/21 00:30:51;;;;;;;30.70;5.57;;;6.50;99.90;;;;;;5034585;28;20046;-49
2022/12/21 00:33:18;;;;;;;23.05;4.25;;;6.50;99.90;;;;;;5051460;28;20045;-48
2022/12/21 00:35:45;;;;;;;22.17;3.75;;;6.50;99.90;;;;;;5018491;28;20038;-44
2022/12/21 00:38:11;;;;;;;19.88;4.00;;;6.60;99.90;;;;;;5035975;28;20037;-46
2022/12/21 00:40:38;;;;;;;24.58;4.18;;;6.60;99.90;;;;;;5051272;28;20049;-46
2022/12/21 00:43:05;;;;;;;31.52;4.88;;;6.60;99.90;;;;;;5036430;28;20069;-48
2022/12/21 00:45:32;;;;;;;26.70;4.40;;;6.60;99.90;;;;;;5052611;28;20041;-48
2022/12/21 00:47:58;;;;;;;20.55;4.35;;;6.60;99.90;;;;;;5052471;28;20041;-46
2022/12/21 00:50:25;;;;;;;23.00;3.70;;;6.70;99.90;;;;;;5036237;28;20065;-48
2022/12/21 00:52:52;;;;;;;18.77;4.43;;;6.70;99.90;;;;;;5033802;28;20079;-47
2022/12/21 00:55:18;;;;;;;22.95;4.28;;;6.70;99.90;;;;;;5050678;28;20071;-45
2022/12/21 00:57:45;;;;;;;29.05;4.00;;;6.70;99.90;;;;;;5035230;28;20030;-46
2022/12/21 01:00:12;;;;;;;25.05;4.55;;;6.70;99.90;;;;;;5033978;28;20132;-48
2022/12/21 01:02:38;;;;;;;26.10;4.38;;;6.70;99.90;;;;;;5034364;28;20053;-48
2022/12/21 01:05:06;;;;;;;26.73;3.88;;;6.80;99.90;;;;;;5040011;28;20053;-45
2022/12/21 01:07:33;;;;;;;23.10;4.22;;;6.80;99.90;;;;;;5034400;28;20067;-45
2022/12/21 01:10:00;;;;;;;23.40;4.40;;;6.80;99.90;;;;;;5034889;28;20511;-50
2022/12/21 01:12:27;;;;;;;21.92;3.58;;;6.80;99.90;;;;;;5034331;28;20441;-48
2022/12/21 01:14:53;;;;;;;23.60;4.07;;;6.80;99.90;;;;;;5054191;28;20071;-47
2022/12/21 01:17:20;;;;;;;22.67;4.45;;;6.80;99.90;;;;;;5051600;28;20068;-50
2022/12/21 01:19:47;;;;;;;24.40;3.90;;;6.80;99.90;;;;;;5053156;28;20064;-47
2022/12/21 01:22:13;;;;;;;19.13;3.42;;;6.90;99.90;;;;;;5044940;28;20083;-46
2022/12/21 01:24:40;;;;;;;21.75;3.88;;;6.80;99.90;;;;;;5034786;28;20095;-46
2022/12/21 01:27:07;;;;;;;20.98;3.67;;;6.80;99.90;;;;;;5032773;28;20041;-51
2022/12/21 01:29:34;;;;;;;25.73;4.53;;;6.90;99.90;;;;;;5033233;28;20053;-46
2022/12/21 01:32:00;;;;;;;25.08;4.35;;;6.90;99.90;;;;;;5034373;28;20096;-46
2022/12/21 01:34:27;;;;;;;21.02;4.10;;;6.90;99.90;;;;;;5033592;28;20465;-51
2022/12/21 01:36:54;;;;;;;24.40;3.72;;;6.90;99.90;;;;;;5036121;28;20104;-45
2022/12/21 01:39:20;;;;;;;21.27;3.72;;;6.90;99.90;;;;;;5046179;28;20045;-45
2022/12/21 01:41:48;;;;;;;22.17;3.80;;;6.90;99.90;;;;;;5035438;28;20069;-49
2022/12/21 01:44:18;;;;;;;21.55;3.80;;;6.90;99.90;;;;;;5034377;28;20044;-50
2022/12/21 01:46:45;;;;;;;26.27;4.40;;;6.90;99.90;;;;;;5032370;28;20069;-49
2022/12/21 01:49:12;;;;;;;22.80;3.67;;;6.90;99.90;;;;;;5032771;28;20053;-48
2022/12/21 01:51:40;;;;;;;25.30;3.85;;;6.90;99.90;;;;;;5040377;28;20047;-48
2022/12/21 01:54:07;;;;;;;27.55;3.78;;;7.00;99.90;;;;;;5053267;28;20037;-49
2022/12/21 01:56:34;;;;;;;24.20;3.95;;;7.00;99.90;;;;;;5051770;28;20060;-46
2022/12/21 01:59:01;;;;;;;27.42;3.80;;;7.00;99.90;;;;;;5032964;28;20485;-47
2022/12/21 02:01:30;;;;;;;22.27;4.00;;;7.00;99.90;;;;;;5041992;28;20052;-49
2022/12/21 02:03:58;;;;;;;23.23;3.85;;;7.10;99.90;;;;;;5052790;28;20143;-51
2022/12/21 02:06:26;;;;;;;26.27;3.88;;;7.10;99.90;;;;;;5048848;28;20114;-47
2022/12/21 02:08:52;;;;;;;22.00;3.47;;;7.10;99.90;;;;;;5042989;28;20053;-47
2022/12/21 02:11:19;;;;;;;21.58;3.80;;;7.10;99.90;;;;;;5038937;28;20057;-46
2022/12/21 02:13:46;;;;;;;18.95;3.63;;;7.10;99.90;;;;;;5048105;28;20108;-48
2022/12/21 02:16:13;;;;;;;20.10;3.65;;;7.20;99.90;;;;;;5051903;28;20107;-45
2022/12/21 02:18:39;;;;;;;26.63;4.20;;;7.20;99.90;;;;;;5038904;28;20358;-49
2022/12/21 02:21:06;;;;;;;21.00;3.13;;;7.20;99.90;;;;;;5032619;28;20393;-49
2022/12/21 02:23:33;;;;;;;22.58;4.13;;;7.20;99.90;;;;;;5032621;28;20160;-45
2022/12/21 02:26:00;;;;;;;24.55;3.75;;;7.30;99.90;;;;;;5033570;28;20457;-48
2022/12/21 02:28:26;;;;;;;23.23;4.05;;;7.30;99.90;;;;;;5039200;28;20033;-48
2022/12/21 02:30:53;;;;;;;20.52;3.65;;;7.30;99.90;;;;;;5032280;28;20038;-46
2022/12/21 02:33:20;;;;;;;15.10;3.42;;;7.30;99.90;;;;;;5034483;28;20388;-46
2022/12/21 02:35:47;;;;;;;21.27;3.28;;;7.30;99.90;;;;;;5031854;28;20046;-46
2022/12/21 02:38:14;;;;;;;18.42;4.32;;;7.30;99.90;;;;;;5032357;28;20542;-49
2022/12/21 02:40:41;;;;;;;15.90;3.15;;;7.40;99.90;;;;;;5033560;28;20091;-46
2022/12/21 02:45:54;;;;;;;15.07;3.03;;;7.40;99.90;;;;;;5032440;28;20041;-50
2022/12/21 02:48:20;;;;;;;13.15;2.67;;;7.40;99.90;;;;;;5032843;28;20129;-51
2022/12/21 02:50:47;;;;;;;15.18;2.72;;;7.40;99.90;;;;;;5032137;28;20140;-46
2022/12/21 02:53:14;;;;;;;15.48;2.85;;;7.40;99.90;;;;;;5031932;28;20492;-47
2022/12/21 02:55:42;;;;;;;16.20;2.75;;;7.40;99.90;;;;;;5033383;28;20034;-47
2022/12/21 02:58:09;;;;;;;16.08;3.13;;;7.40;99.90;;;;;;5032038;28;20241;-49
2022/12/21 03:00:38;;;;;;;15.45;2.75;;;7.40;99.90;;;;;;5033105;28;20040;-50
2022/12/21 03:05:51;;;;;;;14.18;2.60;;;7.30;99.90;;;;;;5031981;28;20049;-46
2022/12/21 03:08:17;;;;;;;16.10;2.95;;;7.30;99.90;;;;;;5033108;28;20144;-48
2022/12/21 03:10:44;;;;;;;11.20;2.53;;;7.30;99.90;;;;;;5033411;28;20048;-50
2022/12/21 03:13:13;;;;;;;13.48;2.80;;;7.30;99.90;;;;;;5031800;28;20047;-48
2022/12/21 03:15:40;;;;;;;13.40;2.67;;;7.30;99.90;;;;;;5031933;28;20508;-45
2022/12/21 03:18:07;;;;;;;14.32;3.08;;;7.20;99.90;;;;;;5040387;28;20045;-48
2022/12/21 03:20:34;;;;;;;13.82;2.47;;;7.30;99.90;;;;;;5053222;28;20372;-51
2022/12/21 03:23:00;;;;;;;14.90;2.42;;;7.30;99.90;;;;;;5051386;28;20063;-49
2022/12/21 03:25:27;;;;;;;15.00;3.00;;;7.30;99.90;;;;;;5052735;28;20059;-47
2022/12/21 03:27:55;;;;;;;14.30;3.40;;;7.30;99.90;;;;;;5043995;28;20069;-48
2022/12/21 03:30:21;;;;;;;16.00;2.83;;;7.30;99.90;;;;;;5033031;28;20049;-46
2022/12/21 03:32:48;;;;;;;14.70;2.40;;;7.30;99.90;;;;;;5032862;28;20047;-52
2022/12/21 03:35:15;;;;;;;14.50;3.17;;;7.30;99.90;;;;;;5033356;28;20122;-51
2022/12/21 03:37:41;;;;;;;13.63;2.55;;;7.30;99.90;;;;;;5032988;28;20069;-53
2022/12/21 03:40:08;;;;;;;10.40;2.15;;;7.30;99.90;;;;;;5048365;28;20404;-51
2022/12/21 03:42:35;;;;;;;15.93;3.03;;;7.20;99.90;;;;;;5032962;28;20453;-47
2022/12/21 03:45:01;;;;;;;11.70;2.75;;;7.20;99.90;;;;;;5033125;28;20049;-48
2022/12/21 03:47:28;;;;;;;14.73;2.97;;;7.20;99.90;;;;;;5032640;28;20038;-51
2022/12/21 03:49:55;;;;;;;19.73;3.22;;;7.20;99.90;;;;;;5033321;28;20087;-48
2022/12/21 03:52:21;;;;;;;19.15;3.10;;;7.20;99.90;;;;;;5032929;28;20444;-51
2022/12/21 03:54:48;;;;;;;19.38;2.55;;;7.20;99.90;;;;;;5032933;28;20073;-50
2022/12/21 03:57:15;;;;;;;16.02;2.60;;;7.30;99.90;;;;;;5032607;28;20370;-51
2022/12/21 03:59:42;;;;;;;17.45;2.80;;;7.30;99.90;;;;;;5032802;28;20076;-50
2022/12/21 04:02:08;;;;;;;13.60;3.28;;;7.30;99.90;;;;;;5039754;28;20045;-50
2022/12/21 04:04:35;;;;;;;16.52;2.67;;;7.30;99.90;;;;;;5032860;28;20493;-49
2022/12/21 04:07:02;;;;;;;11.35;2.60;;;7.30;99.90;;;;;;5032656;28;20037;-48
2022/12/21 04:09:29;;;;;;;15.07;2.65;;;7.30;99.90;;;;;;5032873;28;20092;-50
2022/12/21 04:14:45;;;;;;;16.08;2.42;;;7.20;99.90;;;;;;5032648;28;20116;-48
2022/12/21 04:17:12;;;;;;;13.88;2.50;;;7.20;99.90;;;;;;5032498;28;20049;-46
2022/12/21 04:19:57;;;;;;;19.10;2.70;;;7.20;99.90;;;;;;5032913;28;20045;-45
2022/12/21 04:28:07;;;;;;;18.05;2.60;;;7.20;99.90;;;;;;5041765;28;20048;-47
2022/12/21 04:30:53;;;;;;;17.40;2.70;;;7.20;99.90;;;;;;5051018;28;20140;-48
2022/12/21 04:33:20;;;;;;;11.85;2.35;;;7.20;99.90;;;;;;5052825;28;20037;-46
2022/12/21 04:38:32;;;;;;;11.85;2.35;;;7.20;99.90;;;;;;5055265;28;20115;-46
2022/12/21 04:40:59;;;;;;;16.45;2.92;;;7.10;99.90;;;;;;5055984;28;20118;-47
2022/12/21 04:43:26;;;;;;;14.38;2.60;;;7.20;99.90;;;;;;5054869;28;20045;-46
2022/12/21 04:45:52;;;;;;;15.23;2.22;;;7.20;99.90;;;;;;5054170;28;20400;-50
2022/12/21 04:48:19;;;;;;;19.67;2.83;;;7.20;99.90;;;;;;5055690;28;20103;-46
2022/12/21 04:50:46;;;;;;;12.63;2.05;;;7.20;99.90;;;;;;5055796;28;20037;-47
2022/12/21 04:53:13;;;;;;;14.35;2.65;;;7.20;99.90;;;;;;5055742;28;20041;-46
2022/12/21 04:55:39;;;;;;;20.88;2.60;;;7.20;99.90;;;;;;5048729;28;20036;-48
2022/12/21 04:58:06;;;;;;;16.80;2.95;;;7.20;99.90;;;;;;5039184;28;20090;-48
2022/12/21 05:00:33;;;;;;;11.65;2.13;;;7.20;99.90;;;;;;5052231;28;20095;-47
2022/12/21 05:03:00;;;;;;;13.90;2.30;;;7.20;99.90;;;;;;5050389;28;20493;-46
2022/12/21 05:05:27;;;;;;;9.10;2.10;;;7.20;99.90;;;;;;5037469;28;20100;-51
2022/12/21 05:07:54;;;;;;;13.05;2.03;;;7.20;99.90;;;;;;5042890;28;20049;-50
2022/12/21 05:10:20;;;;;;;19.17;2.15;;;7.20;99.90;;;;;;5035199;28;20065;-50
2022/12/21 05:12:47;;;;;;;13.98;2.28;;;7.20;99.90;;;;;;5051054;28;20128;-47
2022/12/21 05:15:16;;;;;;;10.10;2.10;;;7.10;99.90;;;;;;5034936;28;20052;-48
2022/12/21 05:17:43;;;;;;;13.57;1.75;;;7.10;99.90;;;;;;5047033;28;20555;-47
2022/12/21 05:20:10;;;;;;;15.93;2.08;;;7.10;99.90;;;;;;5053585;28;20045;-44
2022/12/21 05:22:37;;;;;;;14.90;2.22;;;7.00;99.90;;;;;;5038570;28;20382;-47
2022/12/21 05:25:03;;;;;;;14.25;2.35;;;7.00;99.90;;;;;;5037616;28;20148;-45
2022/12/21 05:27:30;;;;;;;15.60;3.03;;;7.00;99.90;;;;;;5036584;28;20042;-52
2022/12/21 05:29:57;;;;;;;16.50;2.00;;;7.00;99.90;;;;;;5037660;28;20045;-51
2022/12/21 05:32:24;;;;;;;15.82;2.40;;;7.00;99.90;;;;;;5047367;28;20112;-48
2022/12/21 05:34:50;;;;;;;10.73;2.13;;;6.90;99.90;;;;;;5046449;28;20045;-47
2022/12/21 05:37:17;;;;;;;16.88;2.20;;;6.90;99.90;;;;;;5041251;28;20107;-51
2022/12/21 05:39:44;;;;;;;14.55;2.55;;;6.90;99.90;;;;;;5033658;28;20041;-47
2022/12/21 05:42:11;;;;;;;15.40;2.30;;;6.90;99.90;;;;;;5054716;28;20413;-50
2022/12/21 05:44:37;;;;;;;13.82;2.17;;;6.90;99.90;;;;;;5054821;28;20095;-47
2022/12/21 05:47:04;;;;;;;13.35;2.08;;;6.90;99.90;;;;;;5054662;28;20045;-50
2022/12/21 05:49:31;;;;;;;15.52;2.28;;;6.90;99.90;;;;;;5054510;28;20393;-47
2022/12/21 05:51:58;;;;;;;12.20;2.30;;;6.90;99.90;;;;;;5038508;28;20504;-47
2022/12/21 05:54:24;;;;;;;13.48;2.30;;;6.90;99.90;;;;;;5054395;28;20060;-51
2022/12/21 05:56:51;;;;;;;16.45;2.30;;;6.80;99.90;;;;;;5054624;28;20037;-51
2022/12/21 05:59:18;;;;;;;21.33;2.58;;;6.90;99.90;;;;;;5044185;28;20385;-50
2022/12/21 06:01:44;;;;;;;14.45;3.30;;;6.90;99.90;;;;;;5048926;28;20056;-48
2022/12/21 06:04:11;;;;;;;13.07;2.17;;;6.90;99.90;;;;;;5037156;28;20042;-48
2022/12/21 06:06:38;;;;;;;16.42;2.30;;;6.80;99.90;;;;;;5033389;28;20053;-49
2022/12/21 06:09:05;;;;;;;21.38;2.85;;;6.80;99.90;;;;;;5032350;28;20054;-48
2022/12/21 06:11:32;;;;;;;17.50;2.65;;;6.90;99.90;;;;;;5037036;28;20484;-50
2022/12/21 06:13:58;;;;;;;15.32;2.38;;;6.80;99.90;;;;;;5044780;28;20083;-51
2022/12/21 06:16:25;;;;;;;19.30;2.72;;;6.80;99.90;;;;;;5032835;28;20042;-50
2022/12/21 06:18:54;;;;;;;18.85;2.90;;;6.90;99.90;;;;;;5049162;28;20177;-49
2022/12/21 06:21:22;;;;;;;18.23;2.58;;;6.80;99.90;;;;;;5033334;28;20044;-49
2022/12/21 06:23:48;;;;;;;21.15;3.15;;;6.90;99.90;;;;;;5050280;28;20095;-52
2022/12/21 06:26:15;;;;;;;17.00;2.70;;;6.90;99.90;;;;;;5050407;28;20068;-48
2022/12/21 06:28:42;;;;;;;14.52;2.50;;;6.90;99.90;;;;;;5039764;28;20044;-53
2022/12/21 06:31:08;;;;;;;24.77;3.17;;;6.90;99.90;;;;;;5054097;28;20080;-52
2022/12/21 06:33:35;;;;;;;20.58;2.80;;;7.00;99.90;;;;;;5043415;28;20476;-52
2022/12/21 06:36:02;;;;;;;17.92;3.08;;;7.00;99.90;;;;;;5048164;28;20045;-47
2022/12/21 06:38:29;;;;;;;18.30;2.65;;;7.00;99.90;;;;;;5047015;28;20064;-47
2022/12/21 06:40:56;;;;;;;16.45;2.72;;;7.00;99.90;;;;;;5051360;28;20064;-52
2022/12/21 06:43:23;;;;;;;18.30;3.25;;;7.00;99.90;;;;;;5051998;28;20045;-50
2022/12/21 06:45:50;;;;;;;21.17;2.45;;;7.10;99.90;;;;;;5048714;28;20084;-48
2022/12/21 06:48:17;;;;;;;17.30;2.80;;;7.10;99.90;;;;;;5033978;28;20099;-52
2022/12/21 06:50:43;;;;;;;20.25;2.78;;;7.10;99.90;;;;;;5033541;28;20123;-51
2022/12/21 06:53:10;;;;;;;16.88;3.03;;;7.20;99.90;;;;;;5033693;28;20365;-50
2022/12/21 06:55:37;;;;;;;24.70;3.22;;;7.20;99.90;;;;;;5036346;28;20076;-52
2022/12/21 06:58:04;;;;;;;21.85;3.22;;;7.20;99.90;;;;;;5033317;28;20051;-47
2022/12/21 07:00:31;;;;;;;19.75;2.90;;;7.20;99.90;;;;;;5043936;28;20099;-46
2022/12/21 07:02:58;;;;;;;16.10;2.70;;;7.20;99.90;;;;;;5032096;28;20083;-49
2022/12/21 07:05:25;;;;;;;18.38;2.33;;;7.30;99.90;;;;;;5033100;28;20063;-47
2022/12/21 07:07:51;;;;;;;26.73;2.45;;;7.30;99.90;;;;;;5032356;28;20096;-44
2022/12/21 07:10:18;;;;;;;20.77;3.35;;;7.30;99.90;;;;;;5036270;28;20056;-52
2022/12/21 07:12:45;;;;;;;20.05;3.05;;;7.30;99.90;;;;;;5042865;28;20617;-49
2022/12/21 07:15:12;;;;;;;14.77;2.45;;;7.40;99.90;;;;;;5050135;28;20065;-50
2022/12/21 07:17:39;;;;;;;22.23;3.75;;;7.40;99.90;;;;;;5031978;28;20045;-46
2022/12/21 07:20:06;;;;;;;16.23;2.78;;;7.50;99.90;;;;;;5037370;28;20079;-48
2022/12/21 07:22:33;;;;;;;15.13;2.47;;;7.60;99.90;;;;;;5034445;28;20435;-51
2022/12/21 07:25:00;;;;;;;17.55;3.28;;;7.60;99.90;;;;;;5052912;28;20546;-50
2022/12/21 07:27:27;;;;;;;19.23;2.97;;;7.60;99.90;;;;;;5033295;28;20095;-51
2022/12/21 07:29:53;;;;;;;21.17;3.70;;;7.70;99.90;;;;;;5046861;28;20041;-50
2022/12/21 07:32:20;;;;;;;20.15;3.28;;;7.70;99.90;;;;;;5035745;28;20402;-50
2022/12/21 07:34:47;;;;;;;20.77;2.72;;;7.70;99.90;;;;;;5033758;28;20511;-51
2022/12/21 07:37:13;;;;;;;12.45;3.08;;;7.70;99.90;;;;;;5044211;28;20063;-48
2022/12/21 07:39:40;;;;;;;24.23;3.53;;;7.70;99.90;;;;;;5032754;28;20049;-49
2022/12/21 07:42:07;;;;;;;23.55;3.25;;;7.70;99.90;;;;;;5039786;28;20065;-51
2022/12/21 07:44:51;;;;;;;17.65;2.90;;;7.70;99.90;;;;;;5051372;28;20124;-46
2022/12/21 07:47:26;;;;;;;14.02;2.50;;;7.70;99.90;;;;;;5051824;28;20047;-45
2022/12/21 07:49:53;;;;;;;18.15;3.08;;;7.70;99.90;;;;;;5045328;28;20038;-49
2022/12/21 07:52:20;;;;;;;19.85;2.90;;;7.70;99.90;;;;;;5033045;28;20068;-45
2022/12/21 07:54:47;;;;;;;20.65;2.50;;;7.80;99.90;;;;;;5043623;28;20480;-50
2022/12/21 07:57:16;;;;;;;26.30;3.97;;;7.80;99.90;;;;;;5052661;28;20048;-46
2022/12/21 07:59:42;;;;;;;26.10;3.30;;;7.80;99.90;;;;;;5052495;28;20068;-48
2022/12/21 08:02:09;;;;;;;15.40;3.00;;;7.80;99.90;;;;;;5044782;28;20041;-46
2022/12/21 08:04:36;;;;;;;21.30;3.38;;;7.90;99.90;;;;;;5041187;28;20459;-45
2022/12/21 08:07:03;;;;;;;15.45;2.60;;;7.90;99.90;;;;;;5031925;28;20106;-50
2022/12/21 08:09:30;;;;;;;21.10;3.05;;;7.90;99.90;;;;;;5032053;28;20084;-48
2022/12/21 08:11:56;;;;;;;18.20;3.08;;;8.00;99.90;;;;;;5037605;28;20033;-48
2022/12/21 08:14:23;;;;;;;18.23;3.83;;;8.10;99.90;;;;;;5036281;28;20560;-47
2022/12/21 08:16:50;;;;;;;20.85;3.58;;;8.10;99.90;;;;;;5036277;28;20080;-46
2022/12/21 08:19:17;;;;;;;19.17;2.85;;;8.00;99.90;;;;;;5038444;28;20135;-50
2022/12/21 08:21:44;;;;;;;17.27;2.72;;;8.10;99.90;;;;;;5039177;28;20087;-46
2022/12/21 08:24:11;;;;;;;19.60;2.78;;;8.10;99.90;;;;;;5055829;28;20048;-47
2022/12/21 08:26:38;;;;;;;17.10;2.80;;;8.10;99.90;;;;;;5049515;28;20049;-53
2022/12/21 08:29:05;;;;;;;14.93;3.13;;;8.10;99.90;;;;;;5035467;28;20045;-50
2022/12/21 08:31:31;;;;;;;16.40;2.65;;;8.20;99.90;;;;;;5033839;28;20435;-45
2022/12/21 08:33:58;;;;;;;13.93;2.35;;;8.20;99.90;;;;;;5035252;28;20115;-49
2022/12/21 08:36:25;;;;;;;18.77;2.90;;;8.30;99.90;;;;;;5035547;28;20061;-49
2022/12/21 08:38:53;;;;;;;15.00;2.65;;;8.30;99.90;;;;;;5047026;28;20407;-46
2022/12/21 08:41:36;;;;;;;17.35;2.53;;;8.30;99.90;;;;;;5042222;28;20555;-52
2022/12/21 08:44:03;;;;;;;18.75;3.35;;;8.30;99.90;;;;;;5034573;28;20496;-45
2022/12/21 08:46:30;;;;;;;18.13;3.40;;;8.40;99.90;;;;;;5037740;28;20040;-51
2022/12/21 08:48:57;;;;;;;15.93;2.63;;;8.40;99.90;;;;;;5037287;28;20115;-50
2022/12/21 08:51:23;;;;;;;18.75;3.20;;;8.40;99.90;;;;;;5037600;28;20060;-49
2022/12/21 08:53:50;;;;;;;15.60;2.67;;;8.50;99.90;;;;;;5036238;28;20132;-49
2022/12/21 08:56:18;;;;;;;15.73;2.88;;;8.50;99.90;;;;;;5034970;28;20591;-51
2022/12/21 08:58:45;;;;;;;15.75;2.75;;;8.50;99.90;;;;;;5038194;28;20029;-49
2022/12/21 09:01:12;;;;;;;14.43;3.72;;;8.60;99.90;;;;;;5053665;28;20041;-48
2022/12/21 09:03:39;;;;;;;10.55;2.47;;;8.60;99.90;;;;;;5049566;28;20044;-48
2022/12/21 09:06:05;;;;;;;15.85;3.13;;;8.60;99.90;;;;;;5034634;28;20116;-51
2022/12/21 09:08:35;;;;;;;13.68;2.67;;;8.60;99.90;;;;;;5034020;28;20073;-52
2022/12/21 09:11:02;;;;;;;19.50;3.17;;;8.70;99.90;;;;;;5037508;28;20492;-48
2022/12/21 09:13:28;;;;;;;18.15;2.88;;;8.70;99.90;;;;;;5037353;28;20079;-49
2022/12/21 09:15:55;;;;;;;17.75;3.10;;;8.70;99.90;;;;;;5046512;28;20373;-49
2022/12/21 09:18:22;;;;;;;17.48;3.70;;;8.70;99.90;;;;;;5044331;28;20041;-52
2022/12/21 09:20:48;;;;;;;14.23;2.80;;;8.80;99.90;;;;;;5034239;28;20033;-48
2022/12/21 09:23:15;;;;;;;16.65;4.10;;;8.80;99.90;;;;;;5033201;28;20045;-50
2022/12/21 09:25:42;;;;;;;16.40;2.80;;;8.80;99.90;;;;;;5033712;28;20069;-49
2022/12/21 09:28:09;;;;;;;16.85;2.83;;;8.80;99.90;;;;;;5034297;28;20515;-49
2022/12/21 09:30:36;;;;;;;15.73;2.80;;;8.90;99.90;;;;;;5032858;28;20042;-50
2022/12/21 09:33:03;;;;;;;12.80;2.85;;;8.90;99.90;;;;;;5037584;28;20041;-50
2022/12/21 09:35:30;;;;;;;17.65;4.05;;;8.90;99.90;;;;;;5043677;28;20112;-51
2022/12/21 09:37:56;;;;;;;15.13;3.20;;;9.00;99.90;;;;;;5041461;28;20040;-46
2022/12/21 09:40:26;;;;;;;14.75;2.85;;;9.00;99.90;;;;;;5033234;28;20042;-52
2022/12/21 09:42:54;;;;;;;15.27;3.08;;;9.00;99.90;;;;;;5049427;28;20049;-44
2022/12/21 09:45:28;;;;;;;15.10;3.20;;;9.10;99.90;;;;;;5054241;28;20037;-52
2022/12/21 09:47:55;;;;;;;14.93;2.55;;;9.10;99.90;;;;;;5054037;28;20395;-49
2022/12/21 09:50:21;;;;;;;12.90;3.00;;;9.10;99.90;;;;;;5034550;28;20045;-51
2022/12/21 09:52:48;;;;;;;13.70;2.42;;;9.20;99.90;;;;;;5046272;28;20045;-49
2022/12/21 09:55:15;;;;;;;17.10;2.17;;;9.20;99.90;;;;;;5065394;28;20479;-50
2022/12/21 09:57:42;;;;;;;14.13;2.78;;;9.20;99.90;;;;;;5055487;28;20048;-47
2022/12/21 10:00:09;;;;;;;10.35;2.25;;;9.20;99.90;;;;;;5038551;28;20562;-44
2022/12/21 10:02:36;;;;;;;7.43;1.92;;;9.30;99.90;;;;;;5038296;28;20061;-47
2022/12/21 10:05:03;;;;;;;10.80;2.08;;;9.30;99.90;;;;;;5044087;28;20056;-47
2022/12/21 10:07:39;;;;;;;11.10;2.03;;;9.30;99.90;;;;;;5043929;28;20071;-49
2022/12/21 10:10:05;;;;;;;11.73;2.25;;;9.30;99.90;;;;;;5036074;28;20041;-48
2022/12/21 10:12:32;;;;;;;9.73;1.90;;;9.40;99.90;;;;;;5035187;28;20408;-48
2022/12/21 10:14:59;;;;;;;10.73;2.30;;;9.40;99.90;;;;;;5038794;28;20045;-48
2022/12/21 10:17:26;;;;;;;12.43;1.83;;;9.40;99.90;;;;;;5043214;28;20087;-46
2022/12/21 10:20:08;;;;;;;9.73;2.05;;;9.40;99.90;;;;;;5037285;28;20556;-50
2022/12/21 10:22:35;;;;;;;13.85;2.55;;;9.40;99.90;;;;;;5034676;28;20117;-45
2022/12/21 10:25:02;;;;;;;11.30;1.95;;;9.40;99.90;;;;;;5043389;28;20046;-49
2022/12/21 10:27:29;;;;;;;13.43;2.15;;;9.40;99.90;;;;;;5038689;28;20091;-51
2022/12/21 10:29:55;;;;;;;11.77;2.15;;;9.50;99.90;;;;;;5041976;28;20041;-52
2022/12/21 10:32:22;;;;;;;11.95;2.03;;;9.50;99.90;;;;;;5042830;28;20064;-50
2022/12/21 10:34:49;;;;;;;14.88;2.42;;;9.40;99.90;;;;;;5039802;28;20051;-47
2022/12/21 10:37:16;;;;;;;14.82;2.15;;;9.50;99.90;;;;;;5034285;28;20044;-49
2022/12/21 10:39:46;;;;;;;11.10;2.00;;;9.50;99.90;;;;;;5040374;28;20065;-54
2022/12/21 10:42:13;;;;;;;14.40;2.30;;;9.50;99.90;;;;;;5040992;28;20396;-52
2022/12/21 10:44:39;;;;;;;16.13;2.22;;;9.50;99.90;;;;;;5041132;28;20480;-48
2022/12/21 10:47:06;;;;;;;10.07;2.28;;;9.50;99.90;;;;;;5043335;28;20049;-49
2022/12/21 10:49:33;;;;;;;15.07;1.92;;;9.60;99.90;;;;;;5033430;28;20041;-50
2022/12/21 10:52:00;;;;;;;6.32;1.88;;;9.60;99.90;;;;;;5036317;28;20114;-47
2022/12/21 10:54:26;;;;;;;11.00;2.08;;;9.70;99.90;;;;;;5033468;28;20057;-48
2022/12/21 10:56:53;;;;;;;12.40;2.03;;;9.70;99.90;;;;;;5035560;28;20064;-45
2022/12/21 10:59:20;;;;;;;14.50;2.40;;;9.70;99.90;;;;;;5040764;28;20133;-51
2022/12/21 11:01:47;;;;;;;10.48;2.60;;;9.80;99.90;;;;;;5036662;28;20544;-50
2022/12/21 11:04:13;;;;;;;13.63;2.40;;;9.90;99.90;;;;;;5038256;28;20461;-50
2022/12/21 11:06:40;;;;;;;8.82;2.78;;;9.90;99.90;;;;;;5043436;28;20037;-49
2022/12/21 11:09:07;;;;;;;10.98;2.20;;;9.90;99.90;;;;;;5048619;28;20053;-48
2022/12/21 11:11:34;;;;;;;14.60;2.53;;;9.90;99.90;;;;;;5044677;28;20120;-51
2022/12/21 11:14:01;;;;;;;13.18;2.83;;;10.00;99.90;;;;;;5041669;28;20088;-48
2022/12/21 11:16:33;;;;;;;16.27;2.50;;;10.00;99.90;;;;;;5053021;28;20091;-48
2022/12/21 11:19:00;;;;;;;15.52;2.72;;;10.10;99.90;;;;;;5035370;28;20052;-50
2022/12/21 11:21:27;;;;;;;11.65;2.15;;;10.10;99.90;;;;;;5042742;28;20484;-50
2022/12/21 11:23:54;;;;;;;12.40;2.28;;;10.20;99.90;;;;;;5031386;28;20045;-48
2022/12/21 11:26:20;;;;;;;11.55;2.25;;;10.20;99.90;;;;;;5035618;28;20083;-46
2022/12/21 11:28:49;;;;;;;15.02;2.65;;;10.30;99.90;;;;;;5041005;28;20048;-45
2022/12/21 11:31:16;;;;;;;11.60;2.15;;;10.30;99.90;;;;;;5034379;28;20060;-49
2022/12/21 11:33:43;;;;;;;11.95;2.40;;;10.40;99.90;;;;;;5036057;28;20048;-46
2022/12/21 11:36:10;;;;;;;12.10;2.67;;;10.40;99.90;;;;;;5033122;28;20069;-51
2022/12/21 11:38:37;;;;;;;13.13;2.88;;;10.40;99.90;;;;;;5042785;28;20048;-47
2022/12/21 11:41:03;;;;;;;10.45;2.08;;;10.40;99.90;;;;;;5045348;28;20120;-45
2022/12/21 11:43:30;;;;;;;11.43;2.28;;;10.40;99.90;;;;;;5049369;28;20048;-47
2022/12/21 11:45:57;;;;;;;13.10;2.20;;;10.50;99.90;;;;;;5044811;28;20045;-45
2022/12/21 11:48:44;;;;;;;10.88;2.20;;;10.50;99.90;;;;;;5040291;28;20041;-48
2022/12/21 11:51:18;;;;;;;11.27;2.30;;;10.50;99.90;;;;;;5041899;28;20138;-46
2022/12/21 11:53:44;;;;;;;7.43;1.50;;;10.50;99.90;;;;;;5048715;28;20391;-46
2022/12/21 11:56:11;;;;;;;7.22;2.13;;;10.50;99.90;;;;;;5039112;28;20102;-46
2022/12/21 11:58:38;;;;;;;7.68;2.95;;;10.60;99.90;;;;;;5039923;28;20045;-50
2022/12/21 12:01:05;;;;;;;6.60;1.40;;;10.60;99.90;;;;;;5042815;28;20041;-48
2022/12/21 12:03:32;;;;;;;6.38;1.45;;;10.60;99.90;;;;;;5046163;28;20060;-48
2022/12/21 12:05:58;;;;;;;4.60;1.17;;;10.60;99.90;;;;;;5051583;28;20041;-48
2022/12/21 12:08:25;;;;;;;6.85;1.40;;;10.60;99.90;;;;;;5038928;28;20103;-49
2022/12/21 12:10:52;;;;;;;4.82;1.30;;;10.60;99.90;;;;;;5041374;28;20132;-50
2022/12/21 12:13:19;;;;;;;4.88;1.00;;;10.70;99.90;;;;;;5046177;28;20044;-50
2022/12/21 12:15:45;;;;;;;5.88;1.05;;;10.70;99.90;;;;;;5045170;28;21000;-46
2022/12/21 12:18:12;;;;;;;3.90;0.85;;;10.70;99.90;;;;;;5043931;28;20049;-51
2022/12/21 12:20:39;;;;;;;4.22;0.98;;;10.70;99.90;;;;;;5041301;28;20040;-53
2022/12/21 12:23:06;;;;;;;4.47;0.98;;;10.70;99.90;;;;;;5042438;28;20045;-48
2022/12/21 12:25:32;;;;;;;2.55;0.80;;;10.60;99.90;;;;;;5041774;28;20048;-46
2022/12/21 12:27:59;;;;;;;1.50;0.70;;;10.60;99.90;;;;;;5041862;28;20044;-51
2022/12/21 12:30:26;;;;;;;3.17;0.80;;;10.60;99.90;;;;;;5042474;28;20138;-50
2022/12/21 12:32:53;;;;;;;4.82;0.73;;;10.60;99.90;;;;;;5040743;28;20041;-50
2022/12/21 12:35:19;;;;;;;3.53;0.68;;;10.60;99.90;;;;;;5041764;28;20049;-48
2022/12/21 12:37:46;;;;;;;3.38;1.05;;;10.60;99.90;;;;;;5043765;28;20041;-48
2022/12/21 12:40:13;;;;;;;3.22;0.80;;;10.60;99.90;;;;;;5047219;28;20045;-48
2022/12/21 12:42:40;;;;;;;4.80;0.88;;;10.60;99.90;;;;;;5043656;28;20037;-45
2022/12/21 12:45:06;;;;;;;0.93;0.50;;;10.60;99.90;;;;;;5040652;28;20037;-47
2022/12/21 12:47:33;;;;;;;1.92;0.50;;;10.50;99.90;;;;;;5043713;28;20072;-51
2022/12/21 12:50:00;;;;;;;4.35;0.82;;;10.50;99.90;;;;;;5046137;28;20053;-49
2022/12/21 12:52:34;;;;;;;4.40;1.00;;;10.50;99.90;;;;;;5043057;28;20380;-48
2022/12/21 12:55:01;;;;;;;5.93;1.00;;;10.50;99.90;;;;;;5042578;28;20496;-46
2022/12/21 12:57:27;;;;;;;2.92;0.90;;;10.50;99.90;;;;;;5042818;28;20042;-47
2022/12/21 12:59:54;;;;;;;6.00;0.88;;;10.40;99.90;;;;;;5041090;28;20045;-45
2022/12/21 13:02:21;;;;;;;4.85;0.80;;;10.40;99.90;;;;;;5042808;28;20037;-46